createdAt,value
2022-10-21T00:02:11.646Z,0.00
2022-10-21T00:07:44.680Z,0.00
2022-10-21T00:13:16.431Z,0.00
2022-10-21T00:18:48.091Z,0.00
2022-10-21T00:24:19.841Z,0.00
2022-10-21T00:29:51.615Z,0.00
2022-10-21T00:35:23.411Z,0.00
2022-10-21T00:40:55.096Z,0.00
2022-10-21T00:46:26.836Z,0.00
2022-10-21T00:51:58.947Z,0.00
2022-10-21T00:57:30.673Z,0.00
2022-10-21T01:03:02.607Z,0.00
2022-10-21T01:08:34.535Z,0.00
2022-10-21T01:14:06.338Z,0.00
2022-10-21T01:19:38.620Z,0.00
2022-10-21T01:25:10.524Z,0.00
2022-10-21T01:30:42.385Z,0.00
2022-10-21T01:36:14.153Z,0.00
2022-10-21T01:41:45.897Z,0.00
2022-10-21T01:47:17.732Z,0.00
2022-10-21T01:52:49.449Z,0.00
2022-10-21T01:58:21.418Z,0.00
2022-10-21T02:03:53.360Z,0.00
2022-10-21T02:09:25.626Z,0.00
2022-10-21T02:14:57.547Z,0.00
2022-10-21T02:20:29.431Z,0.00
2022-10-21T02:26:01.513Z,0.00
2022-10-21T02:31:33.783Z,0.00
2022-10-21T02:37:05.699Z,0.00
2022-10-21T02:42:37.699Z,0.00
2022-10-21T02:48:09.317Z,0.00
2022-10-21T02:53:41.168Z,0.00
2022-10-21T02:59:13.042Z,0.00
2022-10-21T03:04:44.713Z,0.00
2022-10-21T03:10:16.615Z,0.00
2022-10-21T03:15:48.705Z,0.00
2022-10-21T03:21:20.997Z,0.00
2022-10-21T03:26:53.410Z,0.00
2022-10-21T03:32:25.667Z,0.00
2022-10-21T03:43:29.391Z,0.00
2022-10-21T03:49:04.225Z,0.00
2022-10-21T03:54:33.575Z,0.00
2022-10-21T04:00:07.777Z,0.00
2022-10-21T04:05:39.725Z,0.00
2022-10-21T04:11:12.268Z,0.00
2022-10-21T04:16:46.106Z,0.00
2022-10-21T04:22:16.754Z,0.00
2022-10-21T04:27:48.990Z,0.00
2022-10-21T04:33:22.643Z,0.00
2022-10-21T04:38:54.886Z,0.00
2022-10-21T04:44:27.024Z,0.00
2022-10-21T04:49:59.285Z,0.00
2022-10-21T04:55:31.033Z,0.00
2022-10-21T05:01:03.108Z,0.00
2022-10-21T05:06:34.998Z,0.00
2022-10-21T05:12:06.804Z,0.00
2022-10-21T05:17:38.872Z,0.00
2022-10-21T05:23:10.583Z,0.00
2022-10-21T05:34:12.437Z,0.00
2022-10-21T05:39:44.163Z,0.00
2022-10-21T05:45:15.782Z,0.00
2022-10-21T05:50:47.475Z,0.00
2022-10-21T05:56:19.293Z,0.01
2022-10-21T06:07:20.809Z,0.03
2022-10-21T06:12:52.660Z,0.03
2022-10-21T06:18:24.467Z,0.03
2022-10-21T06:23:56.614Z,0.03
2022-10-21T06:29:28.335Z,0.04
2022-10-21T06:35:00.215Z,0.03
2022-10-21T06:40:31.929Z,0.02
2022-10-21T06:46:03.713Z,0.03
2022-10-21T06:51:35.859Z,0.03
2022-10-21T06:57:07.926Z,0.03
2022-10-21T07:02:40.561Z,0.05
2022-10-21T07:08:12.798Z,0.04
2022-10-21T07:13:43.664Z,0.05
2022-10-21T07:19:15.559Z,0.05
2022-10-21T07:24:47.729Z,0.05
2022-10-21T07:30:19.617Z,0.06
2022-10-21T07:35:51.427Z,0.05
2022-10-21T07:41:23.221Z,0.06
2022-10-21T07:46:54.977Z,0.07
2022-10-21T07:52:26.904Z,0.07
2022-10-21T07:57:58.883Z,0.07
2022-10-21T08:09:00.908Z,0.09
2022-10-21T08:14:32.657Z,0.09
2022-10-21T08:20:04.517Z,0.10
2022-10-21T08:31:06.875Z,0.09
2022-10-21T08:36:39.239Z,0.09
2022-10-21T08:42:11.453Z,0.07
2022-10-21T08:47:43.762Z,0.07
2022-10-21T08:53:15.911Z,0.08
2022-10-21T08:58:48.009Z,0.06
2022-10-21T09:04:20.189Z,0.06
2022-10-21T09:09:52.029Z,0.05
2022-10-21T09:15:24.302Z,0.06
2022-10-21T09:20:58.490Z,0.06
2022-10-21T09:26:30.308Z,0.06
2022-10-21T09:32:02.548Z,0.06
2022-10-21T09:37:35.430Z,0.07
2022-10-21T09:43:04.757Z,0.05
2022-10-21T09:48:45.241Z,0.05
2022-10-21T09:54:08.790Z,0.06
2022-10-21T10:05:12.704Z,0.06
2022-10-21T10:10:44.619Z,0.06
2022-10-21T10:16:16.826Z,0.06
2022-10-21T10:32:53.118Z,0.05
2022-10-21T10:38:24.980Z,0.04
2022-10-21T10:43:56.907Z,0.05
2022-10-21T10:49:28.698Z,0.05
2022-10-21T10:55:02.857Z,0.06
2022-10-21T11:00:34.536Z,0.06
2022-10-21T11:06:06.240Z,0.06
2022-10-21T11:11:38.052Z,0.05
2022-10-21T11:17:10.282Z,0.05
2022-10-21T11:22:42.236Z,0.06
2022-10-21T11:28:13.741Z,0.05
2022-10-21T11:33:45.505Z,0.05
2022-10-21T11:35:58.019Z,0.04
2022-10-21T11:41:28.636Z,0.05
2022-10-21T11:52:32.375Z,0.07
2022-10-21T11:58:06.063Z,0.06
2022-10-21T12:09:22.464Z,0.07
2022-10-21T12:14:54.763Z,0.06
2022-10-21T12:20:26.751Z,0.07
2022-10-21T12:25:58.254Z,0.07
2022-10-21T12:31:30.044Z,0.06
2022-10-21T12:37:02.230Z,0.06
2022-10-21T12:48:05.458Z,0.05
2022-10-21T12:55:57.958Z,0.05
2022-10-21T13:01:29.806Z,0.05
2022-10-21T13:07:01.602Z,0.05
2022-10-21T13:23:38.904Z,0.05
2022-10-21T13:29:12.662Z,0.05
2022-10-21T13:45:49.486Z,0.05
2022-10-21T13:51:21.212Z,0.04
2022-10-21T13:56:52.661Z,0.04
2022-10-21T14:02:24.379Z,0.05
2022-10-21T14:15:52.787Z,0.04
2022-10-21T14:21:24.638Z,0.05
2022-10-21T14:26:56.313Z,0.04
2022-10-21T14:37:57.571Z,0.03
2022-10-21T14:43:29.381Z,0.03
2022-10-21T14:49:00.941Z,0.04
2022-10-21T14:54:32.482Z,0.03
2022-10-21T15:00:03.871Z,0.03
2022-10-21T15:05:35.851Z,0.03
2022-10-21T15:11:07.651Z,0.04
2022-10-21T15:16:39.257Z,0.04
2022-10-21T15:22:10.687Z,0.03
2022-10-21T15:27:42.931Z,0.03
2022-10-21T15:33:14.586Z,0.03
2022-10-21T15:38:46.251Z,0.03
2022-10-21T15:44:18.372Z,0.03
2022-10-21T15:49:49.892Z,0.02
2022-10-21T15:55:21.709Z,0.01
2022-10-21T16:00:53.582Z,0.00
2022-10-21T16:06:25.252Z,0.00
2022-10-21T16:12:01.017Z,0.00
2022-10-21T16:17:28.848Z,0.00
2022-10-21T16:23:03.039Z,0.00
2022-10-21T16:28:32.449Z,0.00
2022-10-21T16:34:03.810Z,0.00
2022-10-21T16:39:35.298Z,0.00
2022-10-21T16:45:07.006Z,0.00
2022-10-21T16:50:38.923Z,0.00
2022-10-21T16:56:10.633Z,0.00
2022-10-21T17:01:42.337Z,0.00
2022-10-21T17:07:13.802Z,0.00
2022-10-21T17:12:45.691Z,0.00
2022-10-21T17:18:17.313Z,0.00
2022-10-21T17:23:49.116Z,0.00
2022-10-21T17:29:20.834Z,0.00
2022-10-21T17:34:52.292Z,0.00
2022-10-21T17:40:24.149Z,0.00
2022-10-21T17:45:56.223Z,0.00
2022-10-21T17:51:28.805Z,0.00
2022-10-21T17:53:51.333Z,0.00
2022-10-21T18:12:53.877Z,0.00
2022-10-21T18:18:25.657Z,0.00
2022-10-21T18:29:32.428Z,0.00
2022-10-21T18:35:03.953Z,0.00
2022-10-21T18:40:35.780Z,0.00
2022-10-21T18:46:07.807Z,0.00
2022-10-21T19:02:48.482Z,0.00
2022-10-21T19:08:19.968Z,0.00
2022-10-21T19:13:51.734Z,0.00
2022-10-21T19:19:23.533Z,0.00
2022-10-21T19:24:55.340Z,0.00
2022-10-21T19:30:27.073Z,0.00
2022-10-21T19:35:59.146Z,0.00
2022-10-21T19:41:30.786Z,0.00
2022-10-21T19:47:02.413Z,0.00
2022-10-21T19:52:34.107Z,0.00
2022-10-21T19:58:05.764Z,0.00
2022-10-21T20:03:37.442Z,0.00
2022-10-21T20:09:09.093Z,0.00
2022-10-21T20:14:40.925Z,0.00
2022-10-21T20:25:44.409Z,0.00
2022-10-21T20:31:16.189Z,0.00
2022-10-21T20:36:48.335Z,0.00
2022-10-21T20:42:20.166Z,0.00
2022-10-21T20:47:52.001Z,0.00
2022-10-21T20:53:24.473Z,0.00
2022-10-21T20:58:57.164Z,0.00
2022-10-21T21:04:28.570Z,0.00
2022-10-21T21:10:03.050Z,0.00
2022-10-21T21:15:32.168Z,0.00
2022-10-21T21:21:04.040Z,0.00
2022-10-21T21:26:35.808Z,0.00
2022-10-21T21:32:07.536Z,0.00
2022-10-21T21:43:11.202Z,0.00
2022-10-21T21:48:46.874Z,0.00
2022-10-21T21:54:17.208Z,0.00
2022-10-21T21:59:49.063Z,0.00
2022-10-21T22:05:23.585Z,0.00
2022-10-21T22:10:52.568Z,0.00
2022-10-21T22:16:24.427Z,0.00
2022-10-21T22:21:56.112Z,0.00
2022-10-21T22:27:27.952Z,0.00
2022-10-21T22:32:59.847Z,0.00
2022-10-21T22:38:31.456Z,0.00
2022-10-21T22:44:03.241Z,0.00
2022-10-21T22:49:36.872Z,0.00
2022-10-21T22:55:08.641Z,0.00
2022-10-21T23:00:40.728Z,0.00
2022-10-21T23:06:12.279Z,0.00
2022-10-21T23:11:44.104Z,0.00
2022-10-21T23:17:15.945Z,0.00
2022-10-21T23:22:47.673Z,0.00
2022-10-21T23:33:51.009Z,0.00
2022-10-21T23:39:22.756Z,0.00
2022-10-21T23:44:54.512Z,0.00
2022-10-21T23:50:26.034Z,0.00
